sensor_id;sensor_type;location;lat;lon;timestamp;P1;durP1;ratioP1;P2;durP2;ratioP2
6953;SDS011;3516;47.980;8.808;2023-03-12T05:56:02;7.60;;;6.22;;
6953;SDS011;3516;47.980;8.808;2023-03-12T05:58:29;7.30;;;5.70;;
6953;SDS011;3516;47.980;8.808;2023-03-12T06:00:56;8.00;;;5.57;;
6953;SDS011;3516;47.980;8.808;2023-03-12T06:03:23;6.38;;;5.68;;
6953;SDS011;3516;47.980;8.808;2023-03-12T06:05:50;9.13;;;5.97;;
6953;SDS011;3516;47.980;8.808;2023-03-12T06:08:19;5.35;;;4.82;;
6953;SDS011;3516;47.980;8.808;2023-03-12T06:10:46;6.28;;;5.32;;
6953;SDS011;3516;47.980;8.808;2023-03-12T06:13:16;5.13;;;4.47;;
6953;SDS011;3516;47.980;8.808;2023-03-12T06:15:43;5.57;;;4.90;;
6953;SDS011;3516;47.980;8.808;2023-03-12T06:18:09;5.55;;;5.03;;
6953;SDS011;3516;47.980;8.808;2023-03-12T06:20:36;4.65;;;4.25;;
6953;SDS011;3516;47.980;8.808;2023-03-12T06:23:03;5.10;;;4.55;;
6953;SDS011;3516;47.980;8.808;2023-03-12T06:25:30;5.07;;;4.65;;
6953;SDS011;3516;47.980;8.808;2023-03-12T06:27:56;5.15;;;4.65;;
6953;SDS011;3516;47.980;8.808;2023-03-12T06:30:24;5.20;;;4.70;;
6953;SDS011;3516;47.980;8.808;2023-03-12T06:32:51;8.20;;;6.68;;
6953;SDS011;3516;47.980;8.808;2023-03-12T06:35:18;6.88;;;5.93;;
6953;SDS011;3516;47.980;8.808;2023-03-12T06:37:46;6.65;;;5.97;;
6953;SDS011;3516;47.980;8.808;2023-03-12T06:40:12;9.27;;;6.53;;
6953;SDS011;3516;47.980;8.808;2023-03-12T06:42:39;8.20;;;6.75;;
6953;SDS011;3516;47.980;8.808;2023-03-12T06:45:06;9.25;;;6.85;;
6953;SDS011;3516;47.980;8.808;2023-03-12T06:47:35;7.07;;;5.95;;
6953;SDS011;3516;47.980;8.808;2023-03-12T06:50:02;7.05;;;5.95;;
6953;SDS011;3516;47.980;8.808;2023-03-12T06:52:28;8.05;;;6.30;;
6953;SDS011;3516;47.980;8.808;2023-03-12T06:54:55;8.05;;;6.50;;
6953;SDS011;3516;47.980;8.808;2023-03-12T06:57:22;8.50;;;6.40;;
6953;SDS011;3516;47.980;8.808;2023-03-12T06:59:48;9.60;;;7.57;;
6953;SDS011;3516;47.980;8.808;2023-03-12T07:02:15;9.27;;;7.22;;
6953;SDS011;3516;47.980;8.808;2023-03-12T07:04:43;8.48;;;7.30;;
6953;SDS011;3516;47.980;8.808;2023-03-12T07:07:10;8.18;;;6.78;;
6953;SDS011;3516;47.980;8.808;2023-03-12T07:09:37;9.48;;;7.00;;
6953;SDS011;3516;47.980;8.808;2023-03-12T07:12:04;8.27;;;6.60;;
6953;SDS011;3516;47.980;8.808;2023-03-12T07:14:31;7.88;;;6.20;;
6953;SDS011;3516;47.980;8.808;2023-03-12T07:16:57;9.02;;;6.97;;
6953;SDS011;3516;47.980;8.808;2023-03-12T07:19:26;8.13;;;7.00;;
6953;SDS011;3516;47.980;8.808;2023-03-12T07:21:55;7.13;;;6.28;;
6953;SDS011;3516;47.980;8.808;2023-03-12T07:24:22;8.20;;;6.78;;
6953;SDS011;3516;47.980;8.808;2023-03-12T07:26:48;6.90;;;6.20;;
6953;SDS011;3516;47.980;8.808;2023-03-12T07:29:15;8.15;;;5.68;;
6953;SDS011;3516;47.980;8.808;2023-03-12T07:31:42;6.88;;;6.22;;
6953;SDS011;3516;47.980;8.808;2023-03-12T07:34:09;12.48;;;7.63;;
6953;SDS011;3516;47.980;8.808;2023-03-12T07:36:35;9.32;;;7.28;;
6953;SDS011;3516;47.980;8.808;2023-03-12T07:39:03;10.23;;;7.25;;
6953;SDS011;3516;47.980;8.808;2023-03-12T07:41:30;10.10;;;8.32;;
6953;SDS011;3516;47.980;8.808;2023-03-12T07:43:57;9.05;;;8.15;;
6953;SDS011;3516;47.980;8.808;2023-03-12T07:46:23;10.57;;;8.75;;
6953;SDS011;3516;47.980;8.808;2023-03-12T07:48:50;9.48;;;7.88;;
6953;SDS011;3516;47.980;8.808;2023-03-12T07:51:17;9.63;;;7.70;;
6953;SDS011;3516;47.980;8.808;2023-03-12T07:53:44;6.78;;;5.95;;
6953;SDS011;3516;47.980;8.808;2023-03-12T07:56:12;7.15;;;6.50;;
6953;SDS011;3516;47.980;8.808;2023-03-12T07:58:38;6.47;;;5.68;;
6953;SDS011;3516;47.980;8.808;2023-03-12T08:01:05;7.18;;;6.47;;
6953;SDS011;3516;47.980;8.808;2023-03-12T08:03:32;7.30;;;5.90;;
6953;SDS011;3516;47.980;8.808;2023-03-12T08:05:59;6.18;;;5.55;;
6953;SDS011;3516;47.980;8.808;2023-03-12T08:08:27;7.22;;;6.53;;
6953;SDS011;3516;47.980;8.808;2023-03-12T08:10:56;8.63;;;7.40;;
6953;SDS011;3516;47.980;8.808;2023-03-12T08:13:24;8.25;;;6.90;;
6953;SDS011;3516;47.980;8.808;2023-03-12T08:15:51;7.60;;;6.88;;
6953;SDS011;3516;47.980;8.808;2023-03-12T08:18:19;6.72;;;5.90;;
6953;SDS011;3516;47.980;8.808;2023-03-12T08:20:48;6.38;;;5.80;;
6953;SDS011;3516;47.980;8.808;2023-03-12T08:23:15;7.28;;;6.38;;
6953;SDS011;3516;47.980;8.808;2023-03-12T08:25:43;6.65;;;6.00;;
6953;SDS011;3516;47.980;8.808;2023-03-12T08:28:10;7.20;;;6.32;;
6953;SDS011;3516;47.980;8.808;2023-03-12T08:30:38;7.85;;;6.05;;
6953;SDS011;3516;47.980;8.808;2023-03-12T08:33:05;7.10;;;6.40;;
6953;SDS011;3516;47.980;8.808;2023-03-12T08:35:32;6.78;;;6.05;;
6953;SDS011;3516;47.980;8.808;2023-03-12T08:37:58;6.97;;;6.35;;
6953;SDS011;3516;47.980;8.808;2023-03-12T08:40:25;6.53;;;5.93;;
6953;SDS011;3516;47.980;8.808;2023-03-12T08:42:52;6.68;;;5.97;;
6953;SDS011;3516;47.980;8.808;2023-03-12T08:45:18;6.15;;;5.60;;
6953;SDS011;3516;47.980;8.808;2023-03-12T08:47:47;6.75;;;6.15;;
6953;SDS011;3516;47.980;8.808;2023-03-12T08:50:14;9.70;;;7.45;;
6953;SDS011;3516;47.980;8.808;2023-03-12T08:52:41;12.18;;;8.50;;
6953;SDS011;3516;47.980;8.808;2023-03-12T08:55:09;10.98;;;7.60;;
6953;SDS011;3516;47.980;8.808;2023-03-12T08:57:36;9.00;;;6.47;;
6953;SDS011;3516;47.980;8.808;2023-03-12T09:00:04;7.00;;;6.30;;
6953;SDS011;3516;47.980;8.808;2023-03-12T09:02:36;6.45;;;5.85;;
6953;SDS011;3516;47.980;8.808;2023-03-12T09:05:05;5.80;;;5.28;;
6953;SDS011;3516;47.980;8.808;2023-03-12T09:07:32;4.78;;;4.38;;
6953;SDS011;3516;47.980;8.808;2023-03-12T09:09:59;4.80;;;4.47;;
6953;SDS011;3516;47.980;8.808;2023-03-12T09:12:26;4.57;;;4.18;;
6953;SDS011;3516;47.980;8.808;2023-03-12T09:15:00;3.55;;;3.35;;
6953;SDS011;3516;47.980;8.808;2023-03-12T09:17:27;3.00;;;2.85;;
6953;SDS011;3516;47.980;8.808;2023-03-12T09:19:54;3.75;;;3.40;;
6953;SDS011;3516;47.980;8.808;2023-03-12T09:22:21;3.67;;;3.47;;
6953;SDS011;3516;47.980;8.808;2023-03-12T09:24:48;2.70;;;2.58;;
6953;SDS011;3516;47.980;8.808;2023-03-12T09:27:14;2.67;;;2.58;;
6953;SDS011;3516;47.980;8.808;2023-03-12T09:29:41;2.70;;;2.60;;
6953;SDS011;3516;47.980;8.808;2023-03-12T09:32:09;3.08;;;2.70;;
6953;SDS011;3516;47.980;8.808;2023-03-12T09:34:36;2.40;;;2.20;;
6953;SDS011;3516;47.980;8.808;2023-03-12T09:37:03;2.40;;;2.30;;
6953;SDS011;3516;47.980;8.808;2023-03-12T09:39:29;3.45;;;2.40;;
6953;SDS011;3516;47.980;8.808;2023-03-12T09:41:56;2.75;;;2.55;;
6953;SDS011;3516;47.980;8.808;2023-03-12T09:44:25;2.03;;;1.92;;
6953;SDS011;3516;47.980;8.808;2023-03-12T09:46:57;3.92;;;1.60;;
6953;SDS011;3516;47.980;8.808;2023-03-12T09:49:32;1.70;;;1.70;;
6953;SDS011;3516;47.980;8.808;2023-03-12T09:52:04;1.23;;;1.23;;
6953;SDS011;3516;47.980;8.808;2023-03-12T09:54:37;2.30;;;2.10;;
6953;SDS011;3516;47.980;8.808;2023-03-12T09:57:10;1.83;;;1.73;;
6953;SDS011;3516;47.980;8.808;2023-03-12T09:59:41;1.35;;;1.33;;
6953;SDS011;3516;47.980;8.808;2023-03-12T10:02:14;1.90;;;1.80;;
6953;SDS011;3516;47.980;8.808;2023-03-12T10:04:59;1.55;;;1.45;;
6953;SDS011;3516;47.980;8.808;2023-03-12T10:07:31;2.05;;;1.90;;
6953;SDS011;3516;47.980;8.808;2023-03-12T10:10:05;1.70;;;1.60;;
6953;SDS011;3516;47.980;8.808;2023-03-12T10:12:45;1.25;;;1.15;;
6953;SDS011;3516;47.980;8.808;2023-03-12T10:15:26;1.35;;;1.33;;
6953;SDS011;3516;47.980;8.808;2023-03-12T10:18:07;1.25;;;1.25;;
6953;SDS011;3516;47.980;8.808;2023-03-12T10:20:52;1.17;;;1.17;;
6953;SDS011;3516;47.980;8.808;2023-03-12T10:23:29;0.90;;;0.90;;
6953;SDS011;3516;47.980;8.808;2023-03-12T10:26:05;0.98;;;0.98;;
6953;SDS011;3516;47.980;8.808;2023-03-12T10:28:39;0.95;;;0.93;;
6953;SDS011;3516;47.980;8.808;2023-03-12T10:31:12;0.90;;;0.90;;
6953;SDS011;3516;47.980;8.808;2023-03-12T10:33:43;0.80;;;0.80;;
6953;SDS011;3516;47.980;8.808;2023-03-12T10:36:16;1.88;;;1.15;;
6953;SDS011;3516;47.980;8.808;2023-03-12T10:38:45;1.58;;;0.90;;
6953;SDS011;3516;47.980;8.808;2023-03-12T10:41:14;1.88;;;0.80;;
6953;SDS011;3516;47.980;8.808;2023-03-12T10:43:48;1.58;;;0.90;;
6953;SDS011;3516;47.980;8.808;2023-03-12T10:46:25;1.10;;;0.80;;
6953;SDS011;3516;47.980;8.808;2023-03-12T10:49:27;1.25;;;1.13;;
6953;SDS011;3516;47.980;8.808;2023-03-12T10:51:57;1.00;;;1.00;;
6953;SDS011;3516;47.980;8.808;2023-03-12T10:54:27;1.63;;;1.35;;
6953;SDS011;3516;47.980;8.808;2023-03-12T10:56:55;1.80;;;1.27;;
6953;SDS011;3516;47.980;8.808;2023-03-12T10:59:24;1.25;;;1.25;;
6953;SDS011;3516;47.980;8.808;2023-03-12T11:01:53;1.20;;;1.20;;
6953;SDS011;3516;47.980;8.808;2023-03-12T11:04:21;0.90;;;0.90;;
6953;SDS011;3516;47.980;8.808;2023-03-12T11:07:04;0.90;;;0.90;;
6953;SDS011;3516;47.980;8.808;2023-03-12T11:09:43;2.35;;;1.40;;
6953;SDS011;3516;47.980;8.808;2023-03-12T11:12:21;1.45;;;1.10;;
6953;SDS011;3516;47.980;8.808;2023-03-12T11:14:49;0.70;;;0.70;;
6953;SDS011;3516;47.980;8.808;2023-03-12T11:17:19;1.00;;;1.00;;
6953;SDS011;3516;47.980;8.808;2023-03-12T11:19:47;1.13;;;1.00;;
6953;SDS011;3516;47.980;8.808;2023-03-12T11:22:15;0.85;;;0.70;;
6953;SDS011;3516;47.980;8.808;2023-03-12T11:24:56;1.27;;;0.90;;
6953;SDS011;3516;47.980;8.808;2023-03-12T11:27:28;0.60;;;0.60;;
6953;SDS011;3516;47.980;8.808;2023-03-12T11:30:02;0.95;;;0.75;;
6953;SDS011;3516;47.980;8.808;2023-03-12T11:32:32;1.17;;;0.82;;
6953;SDS011;3516;47.980;8.808;2023-03-12T11:35:01;1.05;;;0.77;;
6953;SDS011;3516;47.980;8.808;2023-03-12T11:37:33;0.70;;;0.70;;
6953;SDS011;3516;47.980;8.808;2023-03-12T11:40:12;3.33;;;1.00;;
6953;SDS011;3516;47.980;8.808;2023-03-12T11:42:47;0.70;;;0.70;;
6953;SDS011;3516;47.980;8.808;2023-03-12T11:45:23;1.02;;;0.93;;
6953;SDS011;3516;47.980;8.808;2023-03-12T11:47:57;2.58;;;1.00;;
6953;SDS011;3516;47.980;8.808;2023-03-12T11:50:35;1.50;;;0.80;;
6953;SDS011;3516;47.980;8.808;2023-03-12T11:53:14;0.80;;;0.80;;
6953;SDS011;3516;47.980;8.808;2023-03-12T11:55:55;0.68;;;0.68;;
6953;SDS011;3516;47.980;8.808;2023-03-12T11:58:37;0.70;;;0.70;;
6953;SDS011;3516;47.980;8.808;2023-03-12T12:01:16;1.15;;;0.65;;
6953;SDS011;3516;47.980;8.808;2023-03-12T12:07:00;2.00;;;1.00;;
6953;SDS011;3516;47.980;8.808;2023-03-12T12:09:35;1.73;;;1.10;;
6953;SDS011;3516;47.980;8.808;2023-03-12T12:12:12;1.98;;;0.70;;
6953;SDS011;3516;47.980;8.808;2023-03-12T12:14:58;1.25;;;0.90;;
6953;SDS011;3516;47.980;8.808;2023-03-12T12:17:35;0.80;;;0.80;;
6953;SDS011;3516;47.980;8.808;2023-03-12T12:20:14;1.10;;;0.75;;
6953;SDS011;3516;47.980;8.808;2023-03-12T12:22:53;1.48;;;0.82;;
6953;SDS011;3516;47.980;8.808;2023-03-12T12:25:29;1.40;;;0.77;;
6953;SDS011;3516;47.980;8.808;2023-03-12T12:28:11;0.70;;;0.70;;
6953;SDS011;3516;47.980;8.808;2023-03-12T12:30:53;0.60;;;0.60;;
6953;SDS011;3516;47.980;8.808;2023-03-12T12:33:34;1.40;;;0.70;;
6953;SDS011;3516;47.980;8.808;2023-03-12T12:36:11;1.30;;;0.50;;
6953;SDS011;3516;47.980;8.808;2023-03-12T12:38:39;1.23;;;1.00;;
6953;SDS011;3516;47.980;8.808;2023-03-12T12:41:10;1.13;;;0.80;;
6953;SDS011;3516;47.980;8.808;2023-03-12T12:43:42;2.47;;;0.80;;
6953;SDS011;3516;47.980;8.808;2023-03-12T12:46:13;3.30;;;0.82;;
6953;SDS011;3516;47.980;8.808;2023-03-12T12:48:43;0.80;;;0.50;;
6953;SDS011;3516;47.980;8.808;2023-03-12T12:51:13;1.33;;;0.57;;
6953;SDS011;3516;47.980;8.808;2023-03-12T12:53:43;0.52;;;0.52;;
6953;SDS011;3516;47.980;8.808;2023-03-12T12:56:18;0.77;;;0.77;;
6953;SDS011;3516;47.980;8.808;2023-03-12T12:58:57;1.55;;;0.52;;
6953;SDS011;3516;47.980;8.808;2023-03-12T13:01:33;0.95;;;0.70;;
6953;SDS011;3516;47.980;8.808;2023-03-12T13:04:03;0.93;;;0.70;;
6953;SDS011;3516;47.980;8.808;2023-03-12T13:06:53;0.50;;;0.50;;
6953;SDS011;3516;47.980;8.808;2023-03-12T13:09:36;0.80;;;0.75;;
6953;SDS011;3516;47.980;8.808;2023-03-12T13:12:07;2.47;;;1.10;;
6953;SDS011;3516;47.980;8.808;2023-03-12T13:14:44;2.75;;;1.02;;
6953;SDS011;3516;47.980;8.808;2023-03-12T13:17:22;1.63;;;0.63;;
6953;SDS011;3516;47.980;8.808;2023-03-12T13:19:56;0.75;;;0.60;;
6953;SDS011;3516;47.980;8.808;2023-03-12T13:22:51;1.52;;;0.70;;
6953;SDS011;3516;47.980;8.808;2023-03-12T13:25:27;0.50;;;0.50;;
6953;SDS011;3516;47.980;8.808;2023-03-12T13:31:00;0.75;;;0.60;;
6953;SDS011;3516;47.980;8.808;2023-03-12T13:36:21;0.98;;;0.68;;
6953;SDS011;3516;47.980;8.808;2023-03-12T13:38:53;2.05;;;0.98;;
6953;SDS011;3516;47.980;8.808;2023-03-12T13:41:32;2.72;;;0.77;;
6953;SDS011;3516;47.980;8.808;2023-03-12T13:46:59;3.47;;;2.10;;
6953;SDS011;3516;47.980;8.808;2023-03-12T13:49:32;1.88;;;1.48;;
6953;SDS011;3516;47.980;8.808;2023-03-12T13:52:07;2.60;;;1.20;;
6953;SDS011;3516;47.980;8.808;2023-03-12T13:54:43;0.82;;;0.82;;
6953;SDS011;3516;47.980;8.808;2023-03-12T13:57:25;1.00;;;0.90;;
6953;SDS011;3516;47.980;8.808;2023-03-12T14:00:03;0.80;;;0.80;;
6953;SDS011;3516;47.980;8.808;2023-03-12T14:02:38;1.65;;;0.95;;
6953;SDS011;3516;47.980;8.808;2023-03-12T14:05:10;1.13;;;0.80;;
6953;SDS011;3516;47.980;8.808;2023-03-12T14:10:39;0.60;;;0.60;;
6953;SDS011;3516;47.980;8.808;2023-03-12T14:13:18;1.90;;;0.80;;
6953;SDS011;3516;47.980;8.808;2023-03-12T14:15:58;1.20;;;0.70;;
6953;SDS011;3516;47.980;8.808;2023-03-12T14:18:32;0.85;;;0.63;;
6953;SDS011;3516;47.980;8.808;2023-03-12T14:21:01;0.70;;;0.60;;
6953;SDS011;3516;47.980;8.808;2023-03-12T14:23:33;0.73;;;0.73;;
6953;SDS011;3516;47.980;8.808;2023-03-12T14:26:18;2.28;;;1.00;;
6953;SDS011;3516;47.980;8.808;2023-03-12T14:28:51;0.90;;;0.80;;
6953;SDS011;3516;47.980;8.808;2023-03-12T14:31:31;0.85;;;0.85;;
6953;SDS011;3516;47.980;8.808;2023-03-12T14:34:05;2.13;;;0.90;;
6953;SDS011;3516;47.980;8.808;2023-03-12T14:36:43;1.70;;;0.60;;
6953;SDS011;3516;47.980;8.808;2023-03-12T14:39:25;0.82;;;0.70;;
6953;SDS011;3516;47.980;8.808;2023-03-12T14:42:02;2.72;;;1.10;;
6953;SDS011;3516;47.980;8.808;2023-03-12T14:44:32;1.23;;;0.73;;
6953;SDS011;3516;47.980;8.808;2023-03-12T14:47:03;1.45;;;0.80;;
6953;SDS011;3516;47.980;8.808;2023-03-12T14:49:43;0.98;;;0.80;;
6953;SDS011;3516;47.980;8.808;2023-03-12T14:52:12;1.08;;;0.82;;
6953;SDS011;3516;47.980;8.808;2023-03-12T14:54:53;2.63;;;1.15;;
6953;SDS011;3516;47.980;8.808;2023-03-12T14:57:22;1.38;;;0.93;;
6953;SDS011;3516;47.980;8.808;2023-03-12T14:59:53;1.35;;;0.80;;
6953;SDS011;3516;47.980;8.808;2023-03-12T15:02:25;0.75;;;0.75;;
6953;SDS011;3516;47.980;8.808;2023-03-12T15:05:01;2.35;;;0.88;;
6953;SDS011;3516;47.980;8.808;2023-03-12T15:07:37;3.92;;;1.00;;
6953;SDS011;3516;47.980;8.808;2023-03-12T15:10:15;1.88;;;1.08;;
6953;SDS011;3516;47.980;8.808;2023-03-12T15:12:45;2.38;;;1.25;;
6953;SDS011;3516;47.980;8.808;2023-03-12T15:15:31;3.55;;;1.00;;
6953;SDS011;3516;47.980;8.808;2023-03-12T15:18:04;2.65;;;0.88;;
6953;SDS011;3516;47.980;8.808;2023-03-12T15:20:33;1.10;;;0.93;;
6953;SDS011;3516;47.980;8.808;2023-03-12T15:23:01;1.35;;;0.88;;
6953;SDS011;3516;47.980;8.808;2023-03-12T15:25:32;2.17;;;1.00;;
6953;SDS011;3516;47.980;8.808;2023-03-12T15:28:04;0.95;;;0.85;;
6953;SDS011;3516;47.980;8.808;2023-03-12T15:30:33;1.42;;;1.00;;
6953;SDS011;3516;47.980;8.808;2023-03-12T15:33:07;2.85;;;1.30;;
6953;SDS011;3516;47.980;8.808;2023-03-12T15:35:36;0.90;;;0.88;;
6953;SDS011;3516;47.980;8.808;2023-03-12T15:38:11;1.65;;;0.82;;
6953;SDS011;3516;47.980;8.808;2023-03-12T15:40:40;2.15;;;1.42;;
6953;SDS011;3516;47.980;8.808;2023-03-12T15:43:13;0.98;;;0.95;;
6953;SDS011;3516;47.980;8.808;2023-03-12T15:45:42;4.47;;;1.13;;
6953;SDS011;3516;47.980;8.808;2023-03-12T15:48:17;1.13;;;0.93;;
6953;SDS011;3516;47.980;8.808;2023-03-12T15:50:48;2.85;;;1.10;;
6953;SDS011;3516;47.980;8.808;2023-03-12T15:53:25;1.15;;;0.80;;
6953;SDS011;3516;47.980;8.808;2023-03-12T15:55:56;2.67;;;1.10;;
6953;SDS011;3516;47.980;8.808;2023-03-12T15:58:27;2.03;;;1.27;;
6953;SDS011;3516;47.980;8.808;2023-03-12T16:01:04;1.70;;;1.02;;
6953;SDS011;3516;47.980;8.808;2023-03-12T16:03:34;3.65;;;1.10;;
6953;SDS011;3516;47.980;8.808;2023-03-12T16:06:01;1.15;;;0.80;;
6953;SDS011;3516;47.980;8.808;2023-03-12T16:08:30;2.15;;;1.17;;
6953;SDS011;3516;47.980;8.808;2023-03-12T16:11:01;2.15;;;1.15;;
6953;SDS011;3516;47.980;8.808;2023-03-12T16:13:29;1.73;;;1.00;;
6953;SDS011;3516;47.980;8.808;2023-03-12T16:15:57;1.35;;;1.13;;
6953;SDS011;3516;47.980;8.808;2023-03-12T16:18:24;3.80;;;1.35;;
6953;SDS011;3516;47.980;8.808;2023-03-12T16:20:52;2.03;;;1.00;;
6953;SDS011;3516;47.980;8.808;2023-03-12T16:23:19;4.50;;;1.35;;
6953;SDS011;3516;47.980;8.808;2023-03-12T16:25:47;1.83;;;0.90;;
6953;SDS011;3516;47.980;8.808;2023-03-12T16:28:16;1.55;;;0.90;;
6953;SDS011;3516;47.980;8.808;2023-03-12T16:30:45;1.92;;;1.23;;
6953;SDS011;3516;47.980;8.808;2023-03-12T16:33:12;3.67;;;1.55;;
6953;SDS011;3516;47.980;8.808;2023-03-12T16:35:40;1.50;;;1.40;;
6953;SDS011;3516;47.980;8.808;2023-03-12T16:38:08;2.38;;;1.27;;
6953;SDS011;3516;47.980;8.808;2023-03-12T16:40:35;1.83;;;1.10;;
6953;SDS011;3516;47.980;8.808;2023-03-12T16:43:04;2.17;;;1.08;;
6953;SDS011;3516;47.980;8.808;2023-03-12T16:45:38;1.42;;;1.33;;
6953;SDS011;3516;47.980;8.808;2023-03-12T16:48:10;6.32;;;1.27;;
6953;SDS011;3516;47.980;8.808;2023-03-12T16:50:39;3.22;;;1.00;;
6953;SDS011;3516;47.980;8.808;2023-03-12T16:53:06;1.30;;;1.20;;
6953;SDS011;3516;47.980;8.808;2023-03-12T16:55:39;2.47;;;0.90;;
6953;SDS011;3516;47.980;8.808;2023-03-12T16:58:10;2.60;;;1.42;;
6953;SDS011;3516;47.980;8.808;2023-03-12T17:00:40;1.85;;;1.10;;
6953;SDS011;3516;47.980;8.808;2023-03-12T17:03:07;1.88;;;1.00;;
6953;SDS011;3516;47.980;8.808;2023-03-12T17:05:37;1.70;;;1.10;;
6953;SDS011;3516;47.980;8.808;2023-03-12T17:08:04;1.83;;;1.08;;
6953;SDS011;3516;47.980;8.808;2023-03-12T17:10:32;1.52;;;1.10;;
6953;SDS011;3516;47.980;8.808;2023-03-12T17:12:59;2.30;;;0.90;;
6953;SDS011;3516;47.980;8.808;2023-03-12T17:15:26;1.13;;;0.75;;
6953;SDS011;3516;47.980;8.808;2023-03-12T17:17:54;1.20;;;0.95;;
6953;SDS011;3516;47.980;8.808;2023-03-12T17:20:23;1.30;;;1.00;;
6953;SDS011;3516;47.980;8.808;2023-03-12T17:22:50;1.63;;;0.98;;
6953;SDS011;3516;47.980;8.808;2023-03-12T17:25:19;1.83;;;1.50;;
6953;SDS011;3516;47.980;8.808;2023-03-12T17:27:48;1.67;;;1.55;;
6953;SDS011;3516;47.980;8.808;2023-03-12T17:30:15;1.55;;;1.25;;
6953;SDS011;3516;47.980;8.808;2023-03-12T17:32:42;1.02;;;0.90;;
6953;SDS011;3516;47.980;8.808;2023-03-12T17:35:09;1.00;;;1.00;;
6953;SDS011;3516;47.980;8.808;2023-03-12T17:37:36;2.05;;;1.30;;
6953;SDS011;3516;47.980;8.808;2023-03-12T17:40:03;1.05;;;0.90;;
6953;SDS011;3516;47.980;8.808;2023-03-12T17:42:32;1.95;;;1.00;;
6953;SDS011;3516;47.980;8.808;2023-03-12T17:45:00;1.20;;;1.10;;
6953;SDS011;3516;47.980;8.808;2023-03-12T17:47:28;0.85;;;0.82;;
6953;SDS011;3516;47.980;8.808;2023-03-12T17:49:54;3.03;;;1.10;;
6953;SDS011;3516;47.980;8.808;2023-03-12T17:52:21;1.77;;;1.52;;
6953;SDS011;3516;47.980;8.808;2023-03-12T17:54:48;1.65;;;1.25;;
6953;SDS011;3516;47.980;8.808;2023-03-12T17:57:15;2.25;;;1.13;;
6953;SDS011;3516;47.980;8.808;2023-03-12T17:59:41;0.90;;;0.90;;
6953;SDS011;3516;47.980;8.808;2023-03-12T18:02:10;1.25;;;1.10;;
6953;SDS011;3516;47.980;8.808;2023-03-12T18:04:38;2.60;;;1.02;;
6953;SDS011;3516;47.980;8.808;2023-03-12T18:07:05;1.23;;;1.10;;
6953;SDS011;3516;47.980;8.808;2023-03-12T18:09:31;1.85;;;1.20;;
6953;SDS011;3516;47.980;8.808;2023-03-12T18:11:58;1.35;;;1.15;;
6953;SDS011;3516;47.980;8.808;2023-03-12T18:14:25;1.48;;;1.38;;
6953;SDS011;3516;47.980;8.808;2023-03-12T18:16:51;1.92;;;1.58;;
6953;SDS011;3516;47.980;8.808;2023-03-12T18:19:20;3.67;;;1.80;;
6953;SDS011;3516;47.980;8.808;2023-03-12T18:21:47;2.33;;;1.90;;
6953;SDS011;3516;47.980;8.808;2023-03-12T18:24:15;2.33;;;1.85;;
6953;SDS011;3516;47.980;8.808;2023-03-12T18:26:41;4.05;;;2.40;;
6953;SDS011;3516;47.980;8.808;2023-03-12T18:29:09;3.92;;;2.75;;
6953;SDS011;3516;47.980;8.808;2023-03-12T18:31:36;2.10;;;2.00;;
6953;SDS011;3516;47.980;8.808;2023-03-12T18:34:03;3.25;;;2.10;;
6953;SDS011;3516;47.980;8.808;2023-03-12T18:36:31;2.00;;;1.80;;
6953;SDS011;3516;47.980;8.808;2023-03-12T18:38:58;1.90;;;1.80;;
6953;SDS011;3516;47.980;8.808;2023-03-12T18:41:28;2.53;;;2.33;;
6953;SDS011;3516;47.980;8.808;2023-03-12T18:43:57;2.10;;;1.90;;
6953;SDS011;3516;47.980;8.808;2023-03-12T18:46:24;1.90;;;1.80;;
6953;SDS011;3516;47.980;8.808;2023-03-12T18:48:50;4.65;;;1.90;;
6953;SDS011;3516;47.980;8.808;2023-03-12T18:51:18;2.00;;;1.83;;
6953;SDS011;3516;47.980;8.808;2023-03-12T18:53:46;2.30;;;2.10;;
6953;SDS011;3516;47.980;8.808;2023-03-12T18:56:13;2.72;;;2.17;;
6953;SDS011;3516;47.980;8.808;2023-03-12T18:58:40;4.25;;;2.67;;
6953;SDS011;3516;47.980;8.808;2023-03-12T19:01:07;3.50;;;2.45;;
6953;SDS011;3516;47.980;8.808;2023-03-12T19:03:34;2.15;;;2.05;;
6953;SDS011;3516;47.980;8.808;2023-03-12T19:06:02;3.67;;;3.13;;
6953;SDS011;3516;47.980;8.808;2023-03-12T19:08:29;4.00;;;2.80;;
6953;SDS011;3516;47.980;8.808;2023-03-12T19:10:58;4.63;;;3.50;;
6953;SDS011;3516;47.980;8.808;2023-03-12T19:13:24;6.55;;;4.20;;
6953;SDS011;3516;47.980;8.808;2023-03-12T19:15:55;10.13;;;5.45;;
6953;SDS011;3516;47.980;8.808;2023-03-12T19:18:24;9.07;;;6.07;;
6953;SDS011;3516;47.980;8.808;2023-03-12T19:20:51;9.57;;;6.05;;
6953;SDS011;3516;47.980;8.808;2023-03-12T19:23:18;8.82;;;5.75;;
6953;SDS011;3516;47.980;8.808;2023-03-12T19:25:45;6.95;;;5.40;;
6953;SDS011;3516;47.980;8.808;2023-03-12T19:28:13;6.22;;;4.40;;
6953;SDS011;3516;47.980;8.808;2023-03-12T19:30:39;8.18;;;5.50;;
6953;SDS011;3516;47.980;8.808;2023-03-12T19:33:06;7.10;;;4.93;;
6953;SDS011;3516;47.980;8.808;2023-03-12T19:35:36;7.80;;;5.35;;
6953;SDS011;3516;47.980;8.808;2023-03-12T19:38:03;7.35;;;5.93;;
6953;SDS011;3516;47.980;8.808;2023-03-12T19:40:30;9.20;;;5.82;;
6953;SDS011;3516;47.980;8.808;2023-03-12T19:42:57;6.50;;;5.30;;
6953;SDS011;3516;47.980;8.808;2023-03-12T19:45:25;6.93;;;5.32;;
6953;SDS011;3516;47.980;8.808;2023-03-12T19:47:52;7.97;;;4.82;;
6953;SDS011;3516;47.980;8.808;2023-03-12T19:50:18;11.65;;;5.10;;
6953;SDS011;3516;47.980;8.808;2023-03-12T19:52:45;8.68;;;5.18;;
6953;SDS011;3516;47.980;8.808;2023-03-12T19:55:12;8.43;;;5.82;;
6953;SDS011;3516;47.980;8.808;2023-03-12T19:57:39;9.23;;;5.95;;
6953;SDS011;3516;47.980;8.808;2023-03-12T20:00:07;10.38;;;5.10;;
6953;SDS011;3516;47.980;8.808;2023-03-12T20:02:37;7.47;;;4.35;;
6953;SDS011;3516;47.980;8.808;2023-03-12T20:05:04;5.00;;;4.10;;
6953;SDS011;3516;47.980;8.808;2023-03-12T20:07:32;4.00;;;3.38;;
6953;SDS011;3516;47.980;8.808;2023-03-12T20:09:59;4.63;;;3.38;;
6953;SDS011;3516;47.980;8.808;2023-03-12T20:12:26;5.32;;;3.22;;
6953;SDS011;3516;47.980;8.808;2023-03-12T20:14:52;6.15;;;3.55;;
6953;SDS011;3516;47.980;8.808;2023-03-12T20:17:19;7.78;;;2.97;;
6953;SDS011;3516;47.980;8.808;2023-03-12T20:19:47;4.93;;;2.63;;
6953;SDS011;3516;47.980;8.808;2023-03-12T20:22:14;4.47;;;2.38;;
6953;SDS011;3516;47.980;8.808;2023-03-12T20:24:41;6.25;;;3.35;;
6953;SDS011;3516;47.980;8.808;2023-03-12T20:27:08;5.15;;;2.97;;
6953;SDS011;3516;47.980;8.808;2023-03-12T20:29:34;3.67;;;2.47;;
6953;SDS011;3516;47.980;8.808;2023-03-12T20:32:01;2.88;;;2.58;;
6953;SDS011;3516;47.980;8.808;2023-03-12T20:34:28;3.67;;;2.58;;
6953;SDS011;3516;47.980;8.808;2023-03-12T20:36:57;5.47;;;2.60;;
6953;SDS011;3516;47.980;8.808;2023-03-12T20:39:24;4.38;;;2.60;;
6953;SDS011;3516;47.980;8.808;2023-03-12T20:41:51;2.95;;;2.45;;
6953;SDS011;3516;47.980;8.808;2023-03-12T20:44:17;4.38;;;2.28;;
6953;SDS011;3516;47.980;8.808;2023-03-12T20:46:45;3.00;;;1.85;;
6953;SDS011;3516;47.980;8.808;2023-03-12T20:49:12;5.38;;;2.35;;
6953;SDS011;3516;47.980;8.808;2023-03-12T20:51:39;6.60;;;2.58;;
6953;SDS011;3516;47.980;8.808;2023-03-12T20:54:08;3.40;;;1.85;;
6953;SDS011;3516;47.980;8.808;2023-03-12T20:56:35;5.18;;;2.38;;
6953;SDS011;3516;47.980;8.808;2023-03-12T20:59:03;6.80;;;3.17;;
6953;SDS011;3516;47.980;8.808;2023-03-12T21:01:29;5.32;;;3.08;;
6953;SDS011;3516;47.980;8.808;2023-03-12T21:03:56;3.63;;;3.17;;
6953;SDS011;3516;47.980;8.808;2023-03-12T21:06:23;9.25;;;4.05;;
6953;SDS011;3516;47.980;8.808;2023-03-12T21:08:51;6.05;;;3.30;;
6953;SDS011;3516;47.980;8.808;2023-03-12T21:11:22;9.57;;;3.25;;
6953;SDS011;3516;47.980;8.808;2023-03-12T21:13:50;4.15;;;2.58;;
6953;SDS011;3516;47.980;8.808;2023-03-12T21:16:17;3.92;;;2.90;;
6953;SDS011;3516;47.980;8.808;2023-03-12T21:18:44;3.75;;;2.78;;
6953;SDS011;3516;47.980;8.808;2023-03-12T21:21:10;9.52;;;3.45;;
6953;SDS011;3516;47.980;8.808;2023-03-12T21:23:37;5.80;;;2.92;;
6953;SDS011;3516;47.980;8.808;2023-03-12T21:26:05;4.65;;;2.92;;
6953;SDS011;3516;47.980;8.808;2023-03-12T21:28:33;3.75;;;2.85;;
6953;SDS011;3516;47.980;8.808;2023-03-12T21:31:03;3.33;;;2.50;;
6953;SDS011;3516;47.980;8.808;2023-03-12T21:33:31;3.28;;;2.72;;
6953;SDS011;3516;47.980;8.808;2023-03-12T21:35:58;3.47;;;2.38;;
6953;SDS011;3516;47.980;8.808;2023-03-12T21:38:25;2.60;;;2.40;;
6953;SDS011;3516;47.980;8.808;2023-03-12T21:40:51;2.38;;;2.17;;
6953;SDS011;3516;47.980;8.808;2023-03-12T21:43:21;3.28;;;2.72;;